Thompson, Nebraska
Current Conditions -  °F | °C
As of 7:35 PM on Monday 24 Nov 2014 (Local Time) from KHJH Reporting Station
Clear Clear  
Wind Chill: 29°   Ceiling: Unl
Heat Index: 29°   Visibility: 10mi
Dew Point: 14°   Wind: 3mph
Humidity: 53%   Direction: 310°NW
Pressure: 30.05"   Gusts: NA
Location:  40.1696°N, 97.2152°W
Report Text: KHJH 250135Z AUTO 31003KT 10SM CLR M02/M10 A3005 RMK AO2 T10161100
Loading
Personal Weather Stations






























Interactive Weather Map New forecast layout! Learn more

10-Day Weather Forecast

Advertisements
Track Severe Weather on mobile